Time;durP1;ratioP1;P1;durP2;ratioP2;P2;SDS_P1;SDS_P2;PMS_P1;PMS_P2;Temp;Humidity;BMP_temperature;BMP_pressure;BME280_temperature;BME280_humidity;BME280_pressure;Samples;Min_cycle;Max_cycle;Signal;HPM_P1;HPM_P2
2024/02/13 00:02:26;;;;;;;13.05;5.90;;;;;5.40;98381.00;;;;5077473;28;20111;-61
2024/02/13 00:04:54;;;;;;;13.05;6.35;;;;;5.50;98380.00;;;;5076856;28;20131;-61
2024/02/13 00:07:21;;;;;;;13.73;6.30;;;;;5.50;98392.00;;;;5095328;28;20489;-61
2024/02/13 00:09:48;;;;;;;7.38;5.28;;;;;5.50;98382.00;;;;5094654;28;20032;-61
2024/02/13 00:12:15;;;;;;;9.80;5.47;;;;;5.60;98396.00;;;;5088745;28;20059;-61
2024/02/13 00:14:46;;;;;;;9.48;5.38;;;;;5.50;98408.00;;;;5086173;28;20043;-61
2024/02/13 00:17:15;;;;;;;12.98;4.93;;;;;5.40;98407.00;;;;5076555;28;20048;-61
2024/02/13 00:19:42;;;;;;;13.32;6.00;;;;;5.20;98407.00;;;;5076293;28;20568;-61
2024/02/13 00:22:11;;;;;;;9.95;4.95;;;;;5.20;98417.00;;;;5095180;28;20054;-61
2024/02/13 00:24:39;;;;;;;12.60;5.68;;;;;5.20;98419.00;;;;5095160;28;20040;-61
2024/02/13 00:27:06;;;;;;;14.18;5.28;;;;;5.30;98429.00;;;;5094814;28;20044;-62
2024/02/13 00:29:32;;;;;;;17.75;5.75;;;;;5.40;98426.00;;;;5094668;28;20051;-61
2024/02/13 00:32:00;;;;;;;16.42;5.22;;;;;5.40;98429.00;;;;5095002;28;20404;-61
2024/02/13 00:34:27;;;;;;;12.32;5.10;;;;;5.40;98423.00;;;;5094745;28;20040;-61
2024/02/13 00:36:55;;;;;;;13.02;4.55;;;;;5.30;98437.00;;;;5094673;28;20059;-61
2024/02/13 00:39:22;;;;;;;9.88;4.75;;;;;5.10;98442.00;;;;5076366;28;20049;-61
2024/02/13 00:41:49;;;;;;;11.57;5.07;;;;;4.90;98447.00;;;;5088850;28;20067;-61
2024/02/13 00:44:16;;;;;;;10.57;4.85;;;;;4.80;98442.00;;;;5074346;28;20090;-61
2024/02/13 00:46:43;;;;;;;11.63;5.35;;;;;4.70;98445.00;;;;5074137;28;20488;-62
2024/02/13 00:49:09;;;;;;;11.57;5.53;;;;;4.70;98450.00;;;;5073045;28;20036;-61
2024/02/13 00:51:36;;;;;;;11.30;5.03;;;;;4.70;98453.00;;;;5073479;28;20382;-61
2024/02/13 00:54:03;;;;;;;10.43;4.22;;;;;4.70;98448.00;;;;5055163;28;20052;-60
2024/02/13 00:56:29;;;;;;;7.32;4.38;;;;;4.60;98453.00;;;;5073022;28;20049;-61
2024/02/13 00:59:02;;;;;;;7.80;3.50;;;;;4.50;98450.00;;;;5072472;28;20132;-61
2024/02/13 01:01:29;;;;;;;8.73;3.67;;;;;4.50;98455.00;;;;5073160;28;20068;-61
2024/02/13 01:03:56;;;;;;;5.75;3.45;;;;;4.40;98456.00;;;;5073619;28;20048;-61
2024/02/13 01:06:22;;;;;;;6.25;3.60;;;;;4.30;98461.00;;;;5056206;28;20082;-61
2024/02/13 01:08:49;;;;;;;7.82;3.75;;;;;4.30;98471.00;;;;5073821;28;20049;-61
2024/02/13 01:11:17;;;;;;;10.00;3.58;;;;;4.40;98472.00;;;;5055928;28;20489;-61
2024/02/13 01:13:45;;;;;;;5.15;3.08;;;;;4.30;98465.00;;;;5059858;28;20370;-61
2024/02/13 01:16:11;;;;;;;7.22;3.70;;;;;4.40;98473.00;;;;5093124;28;20044;-60
2024/02/13 01:18:37;;;;;;;6.07;3.55;;;;;4.30;98477.00;;;;5093607;28;20048;-61
2024/02/13 01:21:05;;;;;;;8.85;3.20;;;;;4.30;98477.00;;;;5093431;28;20500;-61
2024/02/13 01:23:32;;;;;;;8.40;3.28;;;;;4.10;98473.00;;;;5093141;28;20126;-61
2024/02/13 01:25:59;;;;;;;7.32;3.55;;;;;4.20;98486.00;;;;5074057;28;20516;-61
2024/02/13 01:28:26;;;;;;;6.85;3.47;;;;;4.20;98483.00;;;;5092436;28;20048;-62
2024/02/13 01:30:52;;;;;;;9.45;3.70;;;;;4.30;98494.00;;;;5074568;28;20040;-61
2024/02/13 01:33:19;;;;;;;4.97;3.13;;;;;4.30;98480.00;;;;5092861;28;20403;-61
2024/02/13 01:35:46;;;;;;;8.45;3.38;;;;;4.50;98481.00;;;;5092946;28;20492;-61
2024/02/13 01:38:12;;;;;;;6.88;3.33;;;;;4.50;98494.00;;;;5092562;28;20058;-62
2024/02/13 01:40:39;;;;;;;9.15;3.88;;;;;4.40;98495.00;;;;5074303;28;20133;-60
2024/02/13 01:43:05;;;;;;;7.55;3.88;;;;;4.50;98492.00;;;;5084546;28;20408;-62
2024/02/13 01:45:32;;;;;;;7.47;3.55;;;;;4.60;98501.00;;;;5086315;28;20416;-61
2024/02/13 01:48:01;;;;;;;7.32;4.00;;;;;4.50;98498.00;;;;5092477;28;20047;-62
2024/02/13 01:50:27;;;;;;;12.38;4.35;;;;;4.50;98497.00;;;;5074035;28;20091;-61
2024/02/13 01:52:54;;;;;;;6.57;3.63;;;;;4.60;98501.00;;;;5092186;28;20040;-61
2024/02/13 01:55:23;;;;;;;10.15;4.72;;;;;4.70;98501.00;;;;5092101;28;20051;-62
2024/02/13 01:57:55;;;;;;;5.82;4.28;;;;;4.70;98505.00;;;;5074197;28;20420;-61
2024/02/13 02:00:22;;;;;;;7.38;4.22;;;;;4.80;98499.00;;;;5091716;28;20063;-61
2024/02/13 02:02:49;;;;;;;8.57;3.83;;;;;4.80;98507.00;;;;5092119;28;20496;-61
2024/02/13 02:05:16;;;;;;;10.75;3.88;;;;;4.90;98505.00;;;;5074138;28;20102;-60
2024/02/13 02:07:43;;;;;;;6.78;4.45;;;;;4.80;98501.00;;;;5092049;28;20048;-61
2024/02/13 02:10:09;;;;;;;8.07;4.05;;;;;4.70;98510.00;;;;5091877;28;20055;-61
2024/02/13 02:12:38;;;;;;;10.68;4.20;;;;;4.70;98515.00;;;;5086324;28;20194;-61
2024/02/13 02:15:05;;;;;;;7.88;3.92;;;;;4.60;98515.00;;;;5083819;28;20048;-61
2024/02/13 02:17:32;;;;;;;6.65;3.83;;;;;4.50;98511.00;;;;5074160;28;20066;-61
2024/02/13 02:19:58;;;;;;;8.18;3.28;;;;;4.40;98518.00;;;;5091638;28;20105;-61
2024/02/13 02:22:25;;;;;;;8.90;3.30;;;;;4.40;98523.00;;;;5092253;28;20123;-61
2024/02/13 02:24:52;;;;;;;6.78;3.22;;;;;4.50;98525.00;;;;5092266;28;20411;-62
2024/02/13 02:27:19;;;;;;;10.68;3.60;;;;;4.60;98530.00;;;;5092094;28;20059;-61
2024/02/13 02:29:46;;;;;;;5.30;3.03;;;;;4.80;98525.00;;;;5091683;28;20093;-61
2024/02/13 02:32:13;;;;;;;7.63;2.90;;;;;4.70;98527.00;;;;5092026;28;20102;-61
2024/02/13 02:34:39;;;;;;;9.10;3.00;;;;;4.60;98535.00;;;;5091993;28;20040;-61
2024/02/13 02:37:06;;;;;;;8.93;3.55;;;;;4.70;98534.00;;;;5091912;28;20051;-61
2024/02/13 02:39:33;;;;;;;6.53;3.08;;;;;4.80;98529.00;;;;5094373;28;20040;-61
2024/02/13 02:42:00;;;;;;;7.47;3.25;;;;;4.90;98539.00;;;;5089715;28;20045;-62
2024/02/13 02:44:27;;;;;;;6.45;3.17;;;;;5.00;98543.00;;;;5087125;28;20059;-62
2024/02/13 02:46:54;;;;;;;5.60;3.42;;;;;5.00;98548.00;;;;5095741;28;20051;-61
2024/02/13 02:49:20;;;;;;;6.63;3.38;;;;;5.10;98547.00;;;;5060856;28;20058;-61
2024/02/13 02:51:47;;;;;;;6.55;3.42;;;;;5.30;98551.00;;;;5095728;28;20044;-61
2024/02/13 02:54:13;;;;;;;7.03;3.03;;;;;5.40;98558.00;;;;5095635;28;20048;-61
2024/02/13 02:56:41;;;;;;;4.88;3.03;;;;;5.40;98559.00;;;;5095485;28;20036;-62
2024/02/13 02:59:07;;;;;;;7.93;3.38;;;;;5.30;98556.00;;;;5095010;28;20496;-61
2024/02/13 03:01:34;;;;;;;10.40;3.45;;;;;5.30;98547.00;;;;5077288;28;20079;-60
2024/02/13 03:04:03;;;;;;;6.35;3.35;;;;;5.20;98559.00;;;;5095468;28;20125;-62
2024/02/13 03:06:31;;;;;;;5.85;3.53;;;;;5.20;98557.00;;;;5095405;28;20044;-60
2024/02/13 03:08:58;;;;;;;11.55;4.32;;;;;5.20;98562.00;;;;5094869;28;20067;-61
2024/02/13 03:11:25;;;;;;;8.38;3.60;;;;;5.30;98556.00;;;;5092607;28;20199;-61
2024/02/13 03:13:52;;;;;;;7.68;3.88;;;;;5.40;98565.00;;;;5083488;28;20064;-61
2024/02/13 03:16:18;;;;;;;8.32;4.13;;;;;5.30;98568.00;;;;5095003;28;20055;-61
2024/02/13 03:18:46;;;;;;;8.38;3.90;;;;;5.40;98581.00;;;;5094859;28;20499;-62
2024/02/13 03:21:13;;;;;;;9.57;4.88;;;;;5.50;98575.00;;;;5095179;28;20083;-61
2024/02/13 03:23:42;;;;;;;8.30;3.88;;;;;5.50;98575.00;;;;5095186;28;20168;-61
2024/02/13 03:26:08;;;;;;;11.40;4.50;;;;;5.60;98579.00;;;;5095093;28;20105;-62
2024/02/13 03:28:36;;;;;;;10.50;4.13;;;;;5.60;98584.00;;;;5076386;28;20504;-61
2024/02/13 03:31:04;;;;;;;10.00;4.57;;;;;5.70;98587.00;;;;5094676;28;20121;-62
2024/02/13 03:33:31;;;;;;;7.47;4.28;;;;;5.80;98591.00;;;;5094903;28;20229;-61
2024/02/13 03:35:59;;;;;;;8.60;4.03;;;;;5.90;98585.00;;;;5094865;28;20161;-62
2024/02/13 03:38:26;;;;;;;10.07;4.32;;;;;6.00;98583.00;;;;5094861;28;20052;-61
2024/02/13 03:40:53;;;;;;;9.98;4.60;;;;;6.10;98590.00;;;;5094801;28;20044;-61
2024/02/13 03:43:21;;;;;;;10.15;4.53;;;;;6.20;98591.00;;;;5059334;28;20429;-61
2024/02/13 03:45:48;;;;;;;7.72;4.15;;;;;6.30;98596.00;;;;5090757;28;20086;-61
2024/02/13 03:48:16;;;;;;;8.73;4.25;;;;;6.40;98595.00;;;;5094319;28;20578;-62
2024/02/13 03:50:43;;;;;;;8.95;4.35;;;;;6.50;98597.00;;;;5076255;28;20040;-60
2024/02/13 03:53:10;;;;;;;10.80;4.78;;;;;6.60;98601.00;;;;5094511;28;20484;-61
2024/02/13 03:55:36;;;;;;;10.73;4.75;;;;;6.60;98598.00;;;;5094249;28;20048;-61
2024/02/13 03:58:03;;;;;;;11.77;5.10;;;;;6.60;98601.00;;;;5094171;28;20048;-61
2024/02/13 04:00:30;;;;;;;10.70;5.05;;;;;6.60;98595.00;;;;5093708;28;20036;-61
2024/02/13 04:02:56;;;;;;;11.55;5.82;;;;;6.60;98609.00;;;;5094252;28;20097;-61
2024/02/13 04:05:24;;;;;;;12.73;6.25;;;;;6.70;98604.00;;;;5094145;28;20443;-61
2024/02/13 04:07:51;;;;;;;9.50;5.43;;;;;6.70;98619.00;;;;5094012;28;20044;-61
2024/02/13 04:10:18;;;;;;;14.45;6.50;;;;;6.60;98614.00;;;;5093704;28;20040;-61
2024/02/13 04:12:45;;;;;;;12.88;6.25;;;;;6.60;98615.00;;;;5088016;28;20115;-61
2024/02/13 04:15:13;;;;;;;10.57;5.72;;;;;6.60;98622.00;;;;5085316;28;20130;-61
2024/02/13 04:17:39;;;;;;;10.13;5.80;;;;;6.60;98621.00;;;;5093945;28;20087;-60
2024/02/13 04:20:08;;;;;;;11.57;5.78;;;;;6.60;98632.00;;;;5093489;28;20067;-60
2024/02/13 04:22:35;;;;;;;9.30;5.40;;;;;6.60;98622.00;;;;5075750;28;20061;-60
2024/02/13 04:25:02;;;;;;;12.50;6.18;;;;;6.60;98624.00;;;;5093802;28;20044;-60
2024/02/13 04:27:28;;;;;;;8.98;5.97;;;;;6.60;98624.00;;;;5093690;28;20075;-60
2024/02/13 04:29:56;;;;;;;13.32;7.55;;;;;6.70;98628.00;;;;5093193;28;20077;-61
2024/02/13 04:32:23;;;;;;;13.70;7.20;;;;;6.70;98632.00;;;;5093603;28;20043;-61
2024/02/13 04:34:50;;;;;;;14.10;6.47;;;;;6.80;98629.00;;;;5093504;28;20067;-60
2024/02/13 04:37:17;;;;;;;9.90;6.35;;;;;6.80;98639.00;;;;5075745;28;20044;-62
2024/02/13 04:39:44;;;;;;;14.90;7.38;;;;;6.90;98636.00;;;;5093506;28;20055;-63
2024/02/13 04:42:11;;;;;;;13.27;7.35;;;;;6.90;98641.00;;;;5087752;28;20450;-64
2024/02/13 04:44:38;;;;;;;12.57;7.65;;;;;6.90;98641.00;;;;5075116;28;20105;-62
2024/02/13 04:47:05;;;;;;;16.05;7.90;;;;;6.90;98639.00;;;;5093973;28;20048;-63
2024/02/13 04:49:32;;;;;;;13.73;7.82;;;;;6.90;98640.00;;;;5075617;28;20040;-61
2024/02/13 04:51:59;;;;;;;15.57;8.55;;;;;6.90;98635.00;;;;5075181;28;20135;-61
2024/02/13 04:54:25;;;;;;;14.70;9.10;;;;;7.00;98640.00;;;;5075339;28;20044;-62
2024/02/13 04:56:54;;;;;;;14.80;8.05;;;;;7.00;98641.00;;;;5092912;28;20431;-62
2024/02/13 04:59:22;;;;;;;23.13;9.70;;;;;7.00;98638.00;;;;5074822;28;20048;-62
2024/02/13 05:01:52;;;;;;;15.45;9.98;;;;;7.00;98640.00;;;;5074064;28;20089;-62
2024/02/13 05:09:30;;;;;;;19.25;9.70;;;;;7.10;98646.00;;;;5092763;28;20075;-61
2024/02/13 05:11:57;;;;;;;13.40;9.18;;;;;7.20;98645.00;;;;5086936;28;20041;-61
2024/02/13 05:14:23;;;;;;;15.95;7.75;;;;;7.30;98656.00;;;;5074416;28;20050;-62
2024/02/13 05:16:50;;;;;;;10.57;7.78;;;;;7.30;98656.00;;;;5092752;28;20440;-62
2024/02/13 05:19:17;;;;;;;13.63;8.43;;;;;7.20;98662.00;;;;5074410;28;20048;-62
2024/02/13 05:21:43;;;;;;;14.90;8.95;;;;;7.30;98669.00;;;;5092538;28;20381;-62
2024/02/13 05:24:10;;;;;;;15.45;7.68;;;;;7.30;98665.00;;;;5092646;28;20044;-62
2024/02/13 05:26:36;;;;;;;9.95;7.88;;;;;7.20;98673.00;;;;5092483;28;20507;-62
2024/02/13 05:29:04;;;;;;;15.27;7.82;;;;;7.20;98669.00;;;;5092329;28;20047;-62
2024/02/13 05:31:31;;;;;;;14.20;9.88;;;;;7.20;98669.00;;;;5092513;28;20047;-62
2024/02/13 05:33:57;;;;;;;14.70;8.95;;;;;7.20;98674.00;;;;5092415;28;20043;-62
2024/02/13 05:36:25;;;;;;;12.48;8.38;;;;;7.30;98669.00;;;;5092444;28;20040;-61
2024/02/13 05:38:52;;;;;;;10.85;7.82;;;;;7.30;98669.00;;;;5073913;28;20044;-61
2024/02/13 05:41:19;;;;;;;14.88;7.93;;;;;7.30;98662.00;;;;5090490;28;20562;-61
2024/02/13 05:43:46;;;;;;;13.63;8.07;;;;;7.30;98666.00;;;;5080382;28;20577;-61
2024/02/13 05:46:13;;;;;;;11.93;7.57;;;;;7.30;98666.00;;;;5071994;28;20560;-61
2024/02/13 05:48:42;;;;;;;14.68;8.45;;;;;7.30;98667.00;;;;5054010;28;20045;-61
2024/02/13 05:51:14;;;;;;;18.70;8.65;;;;;7.30;98668.00;;;;5072226;28;20082;-61
2024/02/13 05:53:41;;;;;;;14.82;8.55;;;;;7.20;98680.00;;;;5072368;28;20051;-61
2024/02/13 05:56:12;;;;;;;13.48;8.77;;;;;7.20;98678.00;;;;5072639;28;20110;-61
2024/02/13 05:58:39;;;;;;;16.90;9.48;;;;;7.10;98673.00;;;;5054685;28;20109;-61
2024/02/13 06:01:07;;;;;;;16.42;9.05;;;;;7.10;98675.00;;;;5053936;28;20047;-62
2024/02/13 06:03:34;;;;;;;19.23;10.15;;;;;7.10;98671.00;;;;5054344;28;20049;-62
2024/02/13 06:06:00;;;;;;;14.32;8.70;;;;;7.00;98670.00;;;;5072196;28;20045;-62
2024/02/13 06:08:27;;;;;;;17.38;9.80;;;;;7.00;98676.00;;;;5072401;28;20040;-62
2024/02/13 06:10:54;;;;;;;16.85;9.32;;;;;7.00;98681.00;;;;5073171;28;20090;-62
2024/02/13 06:13:21;;;;;;;16.50;9.93;;;;;7.00;98676.00;;;;5080300;28;20040;-62
2024/02/13 06:15:48;;;;;;;12.65;8.35;;;;;7.00;98684.00;;;;5081578;28;20040;-62
2024/02/13 06:18:15;;;;;;;14.52;9.70;;;;;6.90;98681.00;;;;5078303;28;20072;-64
2024/02/13 06:20:41;;;;;;;14.93;9.63;;;;;6.90;98680.00;;;;5077463;28;20492;-62
2024/02/13 06:23:08;;;;;;;16.15;9.32;;;;;6.90;98684.00;;;;5077892;28;20040;-61
2024/02/13 06:25:34;;;;;;;16.05;9.20;;;;;6.90;98688.00;;;;5077033;28;20047;-62
2024/02/13 06:28:01;;;;;;;15.32;9.48;;;;;6.90;98689.00;;;;5076733;28;20048;-62
2024/02/13 06:30:28;;;;;;;17.77;9.57;;;;;6.90;98689.00;;;;5058645;28;20068;-63
2024/02/13 06:32:55;;;;;;;13.00;8.32;;;;;6.80;98682.00;;;;5076807;28;20151;-62
2024/02/13 06:35:21;;;;;;;13.38;8.07;;;;;6.80;98689.00;;;;5060172;28;20050;-62
2024/02/13 06:37:48;;;;;;;12.13;8.18;;;;;6.70;98683.00;;;;5081319;28;20047;-61
2024/02/13 06:40:15;;;;;;;13.82;8.63;;;;;6.70;98696.00;;;;5078299;28;20068;-61
2024/02/13 06:42:41;;;;;;;14.05;8.45;;;;;6.60;98700.00;;;;5083303;28;20075;-61
2024/02/13 06:45:09;;;;;;;15.02;8.93;;;;;6.60;98705.00;;;;5088250;28;20489;-62
2024/02/13 06:47:37;;;;;;;15.30;9.40;;;;;6.60;98707.00;;;;5098291;28;20119;-62
2024/02/13 06:50:10;;;;;;;15.95;9.50;;;;;6.60;98719.00;;;;5097726;28;20059;-62
2024/02/13 06:52:38;;;;;;;14.25;9.27;;;;;6.60;98725.00;;;;5079803;28;20036;-62
2024/02/13 06:55:07;;;;;;;18.00;10.52;;;;;6.70;98720.00;;;;5079204;28;20048;-62
2024/02/13 06:57:35;;;;;;;16.45;9.65;;;;;6.80;98721.00;;;;5097721;28;20552;-62
2024/02/13 07:00:11;;;;;;;20.27;9.65;;;;;6.80;98723.00;;;;5097564;28;20078;-62
2024/02/13 07:02:38;;;;;;;16.88;9.80;;;;;6.80;98726.00;;;;5097801;28;20059;-62
2024/02/13 07:05:05;;;;;;;17.38;10.25;;;;;6.80;98725.00;;;;5098119;28;20044;-63
2024/02/13 07:07:32;;;;;;;17.80;10.23;;;;;6.80;98731.00;;;;5098209;28;20515;-62
2024/02/13 07:10:12;;;;;;;17.50;10.13;;;;;6.80;98735.00;;;;5097875;28;20086;-62
2024/02/13 07:12:39;;;;;;;19.90;11.90;;;;;6.90;98742.00;;;;5091833;28;20515;-62
2024/02/13 07:15:06;;;;;;;17.45;10.13;;;;;6.90;98743.00;;;;5089288;28;20051;-61
2024/02/13 07:17:33;;;;;;;21.08;10.63;;;;;7.00;98739.00;;;;5097822;28;20477;-63
2024/02/13 07:20:18;;;;;;;19.15;9.93;;;;;7.00;98747.00;;;;5097814;28;20105;-62
2024/02/13 07:22:45;;;;;;;16.33;9.55;;;;;7.00;98748.00;;;;5097585;28;20097;-62
2024/02/13 07:25:14;;;;;;;15.10;9.73;;;;;7.00;98751.00;;;;5078511;28;20044;-62
2024/02/13 07:27:41;;;;;;;19.40;10.57;;;;;7.10;98760.00;;;;5096344;28;20059;-61
2024/02/13 07:30:10;;;;;;;17.23;10.23;;;;;7.20;98759.00;;;;5094386;28;20044;-61
2024/02/13 07:32:39;;;;;;;18.27;9.85;;;;;7.20;98765.00;;;;5094784;28;20044;-61
2024/02/13 07:35:06;;;;;;;16.48;9.98;;;;;7.20;98768.00;;;;5094713;28;20048;-61
2024/02/13 07:37:32;;;;;;;19.48;9.55;;;;;7.20;98765.00;;;;5094746;28;20047;-61
2024/02/13 07:40:00;;;;;;;15.90;8.48;;;;;7.20;98758.00;;;;5094127;28;20044;-61
2024/02/13 07:42:28;;;;;;;18.27;8.88;;;;;7.20;98755.00;;;;5088552;28;20588;-60
2024/02/13 07:44:55;;;;;;;16.48;9.05;;;;;7.30;98770.00;;;;5085935;28;20102;-61
2024/02/13 07:47:22;;;;;;;10.75;7.28;;;;;7.30;98767.00;;;;5094462;28;20490;-61
2024/02/13 07:49:49;;;;;;;12.45;7.55;;;;;7.30;98754.00;;;;5094206;28;20044;-61
2024/02/13 07:52:17;;;;;;;13.57;7.53;;;;;7.20;98762.00;;;;5094586;28;20039;-60
2024/02/13 07:54:45;;;;;;;13.55;7.70;;;;;7.30;98767.00;;;;5094426;28;20036;-60
2024/02/13 07:57:16;;;;;;;9.23;6.53;;;;;7.30;98776.00;;;;5094101;28;20043;-61
2024/02/13 07:59:43;;;;;;;10.82;6.93;;;;;7.20;98771.00;;;;5094070;28;20048;-61
2024/02/13 08:02:10;;;;;;;14.70;6.47;;;;;7.20;98775.00;;;;5093943;28;20047;-61
2024/02/13 08:04:37;;;;;;;10.82;6.57;;;;;7.20;98773.00;;;;5076124;28;20082;-61
2024/02/13 08:07:03;;;;;;;11.32;7.85;;;;;7.20;98777.00;;;;5093890;28;20051;-61
2024/02/13 08:09:32;;;;;;;10.95;6.75;;;;;7.30;98781.00;;;;5075657;28;20115;-60
2024/02/13 08:12:05;;;;;;;12.63;6.32;;;;;7.40;98782.00;;;;5074942;28;20036;-60
2024/02/13 08:14:33;;;;;;;11.45;6.40;;;;;7.40;98786.00;;;;5085468;28;20502;-60
2024/02/13 08:17:00;;;;;;;12.77;7.10;;;;;7.40;98781.00;;;;5093776;28;20044;-60
2024/02/13 08:19:27;;;;;;;12.68;6.85;;;;;7.40;98776.00;;;;5093604;28;20051;-60
2024/02/13 08:21:53;;;;;;;14.23;6.75;;;;;7.50;98785.00;;;;5093935;28;20455;-61
2024/02/13 08:24:20;;;;;;;16.15;7.15;;;;;7.60;98782.00;;;;5093677;28;20055;-60
2024/02/13 08:26:48;;;;;;;11.60;7.15;;;;;7.80;98786.00;;;;5075575;28;20568;-60
2024/02/13 08:29:15;;;;;;;9.95;5.90;;;;;7.80;98795.00;;;;5093358;28;20064;-61
2024/02/13 08:31:42;;;;;;;8.25;5.10;;;;;7.80;98796.00;;;;5093439;28;20123;-60
2024/02/13 08:34:08;;;;;;;9.05;5.88;;;;;7.70;98793.00;;;;5093565;28;20048;-60
2024/02/13 08:36:38;;;;;;;11.60;6.47;;;;;7.60;98798.00;;;;5092514;28;20040;-60
2024/02/13 08:39:05;;;;;;;11.77;6.68;;;;;7.60;98808.00;;;;5093128;28;20083;-60
2024/02/13 08:41:32;;;;;;;8.48;6.38;;;;;7.70;98806.00;;;;5090093;28;20536;-61
2024/02/13 08:43:59;;;;;;;9.32;6.50;;;;;7.70;98807.00;;;;5061535;28;20040;-61
2024/02/13 08:46:26;;;;;;;13.77;6.35;;;;;7.80;98810.00;;;;5073133;28;20102;-60
2024/02/13 08:48:53;;;;;;;9.77;6.20;;;;;7.80;98814.00;;;;5073199;28;20408;-61
2024/02/13 08:51:20;;;;;;;10.32;6.63;;;;;7.80;98813.00;;;;5073113;28;20443;-61
2024/02/13 08:53:46;;;;;;;9.90;6.65;;;;;7.90;98805.00;;;;5073179;28;20068;-61
2024/02/13 08:56:13;;;;;;;10.82;6.68;;;;;7.90;98807.00;;;;5072884;28;20497;-60
2024/02/13 08:58:40;;;;;;;12.98;7.07;;;;;8.00;98809.00;;;;5072623;28;20052;-60
2024/02/13 09:01:08;;;;;;;7.30;6.18;;;;;7.90;98815.00;;;;5072654;28;20040;-61
2024/02/13 09:03:34;;;;;;;7.47;6.03;;;;;7.90;98823.00;;;;5071735;28;20041;-61
2024/02/13 09:06:04;;;;;;;9.98;6.85;;;;;7.90;98828.00;;;;5072781;28;20107;-61
2024/02/13 09:08:32;;;;;;;13.90;8.15;;;;;8.00;98838.00;;;;5071285;28;20595;-61
2024/02/13 09:10:59;;;;;;;10.60;7.03;;;;;8.00;98840.00;;;;5072671;28;20548;-61
2024/02/13 09:13:28;;;;;;;13.40;7.15;;;;;8.10;98850.00;;;;5080802;28;20064;-61
2024/02/13 09:15:55;;;;;;;11.18;6.00;;;;;8.10;98847.00;;;;5089663;28;20044;-61
2024/02/13 09:18:22;;;;;;;11.60;7.88;;;;;8.10;98837.00;;;;5074272;28;20051;-61
2024/02/13 09:20:52;;;;;;;12.13;6.57;;;;;8.10;98835.00;;;;5092616;28;20139;-61
2024/02/13 09:23:19;;;;;;;9.50;6.07;;;;;8.20;98835.00;;;;5092556;28;20085;-61
2024/02/13 09:25:49;;;;;;;10.38;7.40;;;;;8.30;98836.00;;;;5092626;28;20036;-61
2024/02/13 09:28:16;;;;;;;12.70;7.70;;;;;8.40;98839.00;;;;5074254;28;20058;-61
2024/02/13 09:30:44;;;;;;;8.48;5.85;;;;;8.50;98837.00;;;;5074418;28;20044;-61
2024/02/13 09:33:10;;;;;;;11.00;7.53;;;;;8.50;98832.00;;;;5074354;28;20051;-61
2024/02/13 09:35:37;;;;;;;11.52;7.07;;;;;8.60;98837.00;;;;5092368;28;20090;-61
2024/02/13 09:38:04;;;;;;;12.20;8.07;;;;;8.70;98842.00;;;;5074456;28;20044;-61
2024/02/13 09:40:32;;;;;;;10.48;7.22;;;;;8.90;98834.00;;;;5092250;28;20040;-61
2024/02/13 09:42:59;;;;;;;8.95;6.80;;;;;8.90;98845.00;;;;5078181;28;20123;-61
2024/02/13 09:45:26;;;;;;;9.90;6.97;;;;;9.00;98851.00;;;;5078882;28;20044;-61
2024/02/13 09:48:02;;;;;;;10.30;7.00;;;;;9.10;98847.00;;;;5071687;28;20079;-61
2024/02/13 09:50:41;;;;;;;7.95;6.38;;;;;9.20;98853.00;;;;5071820;28;20485;-61
2024/02/13 09:53:21;;;;;;;10.40;7.35;;;;;9.10;98852.00;;;;5072296;28;20049;-61
2024/02/13 09:55:48;;;;;;;13.77;6.95;;;;;9.10;98853.00;;;;5071917;28;20072;-60
2024/02/13 09:58:17;;;;;;;10.93;6.03;;;;;9.10;98854.00;;;;5071652;28;20045;-60
2024/02/13 10:00:44;;;;;;;8.70;5.72;;;;;9.20;98868.00;;;;5054414;28;20079;-61
2024/02/13 10:03:12;;;;;;;10.27;5.63;;;;;9.10;98862.00;;;;5072073;28;20045;-61
2024/02/13 10:05:42;;;;;;;10.07;6.50;;;;;9.20;98857.00;;;;5072226;28;20048;-61
2024/02/13 10:08:11;;;;;;;12.75;6.90;;;;;9.20;98871.00;;;;5072115;28;20052;-61
2024/02/13 10:10:38;;;;;;;10.35;6.10;;;;;9.20;98866.00;;;;5054186;28;20139;-61
2024/02/13 10:13:05;;;;;;;12.77;6.68;;;;;9.30;98875.00;;;;5080141;28;20421;-61
2024/02/13 10:15:50;;;;;;;10.65;6.05;;;;;9.50;98877.00;;;;5085974;28;20048;-61
2024/02/13 10:18:16;;;;;;;9.68;5.40;;;;;9.50;98878.00;;;;5091977;28;20048;-61
2024/02/13 10:20:46;;;;;;;9.20;5.78;;;;;9.50;98876.00;;;;5092112;28;20036;-63
2024/02/13 10:23:14;;;;;;;10.38;5.30;;;;;9.40;98877.00;;;;5091859;28;20381;-61
2024/02/13 10:25:43;;;;;;;10.23;5.13;;;;;9.40;98881.00;;;;5092099;28;20051;-61
2024/02/13 10:28:11;;;;;;;9.40;6.22;;;;;9.50;98869.00;;;;5091966;28;20131;-61
2024/02/13 10:30:38;;;;;;;10.55;5.80;;;;;9.60;98864.00;;;;5092000;28;20048;-61
2024/02/13 10:33:08;;;;;;;11.30;6.32;;;;;9.80;98874.00;;;;5092114;28;20044;-61
2024/02/13 10:35:35;;;;;;;12.68;7.13;;;;;10.00;98866.00;;;;5091988;28;20446;-61
2024/02/13 10:38:07;;;;;;;17.52;9.40;;;;;10.20;98871.00;;;;5091898;28;20040;-61
2024/02/13 10:40:39;;;;;;;12.98;6.82;;;;;10.40;98867.00;;;;5091576;28;20088;-61
2024/02/13 10:43:11;;;;;;;11.25;6.68;;;;;10.60;98865.00;;;;5085426;28;20042;-61
2024/02/13 10:45:38;;;;;;;8.43;5.53;;;;;10.70;98868.00;;;;5086843;28;20139;-61
2024/02/13 10:48:50;;;;;;;8.98;5.80;;;;;11.00;98879.00;;;;5073730;28;20044;-61
2024/02/13 10:51:17;;;;;;;9.70;5.28;;;;;11.00;98874.00;;;;5091827;28;20467;-61
2024/02/13 10:53:49;;;;;;;9.43;5.00;;;;;10.80;98873.00;;;;5091899;28;20123;-62
2024/02/13 10:56:17;;;;;;;5.75;3.83;;;;;10.60;98863.00;;;;5091724;28;20051;-61
2024/02/13 10:58:46;;;;;;;7.68;4.70;;;;;10.30;98869.00;;;;5091379;28;20051;-61
2024/02/13 11:01:15;;;;;;;5.82;3.50;;;;;10.20;98860.00;;;;5095534;28;20075;-61
2024/02/13 11:03:48;;;;;;;6.35;4.18;;;;;10.20;98867.00;;;;5095473;28;20531;-61
2024/02/13 11:06:15;;;;;;;4.60;3.97;;;;;10.20;98868.00;;;;5077615;28;20519;-61
2024/02/13 11:08:42;;;;;;;6.38;4.75;;;;;10.20;98876.00;;;;5095191;28;20044;-61
2024/02/13 11:11:22;;;;;;;6.60;4.13;;;;;10.20;98861.00;;;;5095161;28;20117;-61
2024/02/13 11:13:49;;;;;;;6.60;3.97;;;;;10.20;98866.00;;;;5083373;28;20032;-61
2024/02/13 11:16:18;;;;;;;6.05;3.47;;;;;10.30;98865.00;;;;5037187;28;20111;-63
2024/02/13 11:18:51;;;;;;;5.50;4.25;;;;;10.30;98876.00;;;;5054759;28;20057;-62
2024/02/13 11:21:25;;;;;;;5.97;3.95;;;;;10.30;98870.00;;;;5054920;28;20409;-62
2024/02/13 11:23:58;;;;;;;5.00;3.53;;;;;10.40;98871.00;;;;5054875;28;20095;-62
2024/02/13 11:26:32;;;;;;;5.85;3.75;;;;;10.50;98873.00;;;;5054971;28;20037;-63
2024/02/13 11:29:09;;;;;;;5.78;3.40;;;;;10.30;98865.00;;;;5054742;28;20068;-62
2024/02/13 11:31:37;;;;;;;5.43;3.50;;;;;10.20;98862.00;;;;5054869;28;20100;-62
2024/02/13 11:34:10;;;;;;;4.72;3.58;;;;;10.10;98870.00;;;;5055237;28;20044;-62
2024/02/13 11:36:37;;;;;;;5.22;3.35;;;;;10.10;98867.00;;;;5055536;28;20451;-62
2024/02/13 11:39:06;;;;;;;7.75;3.58;;;;;10.10;98866.00;;;;5057254;28;20041;-62
2024/02/13 11:41:34;;;;;;;6.00;3.60;;;;;10.10;98853.00;;;;5061083;28;20079;-62
2024/02/13 11:44:08;;;;;;;6.65;4.13;;;;;10.20;98871.00;;;;5068688;28;20115;-62
2024/02/13 11:46:56;;;;;;;5.53;4.05;;;;;10.10;98860.00;;;;5097957;28;20071;-62
2024/02/13 11:49:25;;;;;;;5.63;4.03;;;;;10.10;98859.00;;;;5097507;28;20062;-62
2024/02/13 11:51:53;;;;;;;5.68;3.80;;;;;10.30;98855.00;;;;5097831;28;20505;-62
2024/02/13 11:54:19;;;;;;;6.00;3.50;;;;;10.40;98854.00;;;;5097797;28;20182;-62
2024/02/13 11:56:46;;;;;;;6.32;3.80;;;;;10.50;98858.00;;;;5097273;28;20044;-62
2024/02/13 11:59:12;;;;;;;6.90;4.22;;;;;10.50;98852.00;;;;5096986;28;20044;-61
2024/02/13 12:01:42;;;;;;;6.80;4.95;;;;;10.40;98855.00;;;;5097247;28;20044;-61
2024/02/13 12:04:12;;;;;;;5.95;4.35;;;;;10.40;98866.00;;;;5096840;28;20048;-61
2024/02/13 12:06:40;;;;;;;6.70;4.65;;;;;10.40;98851.00;;;;5096754;28;20068;-61
2024/02/13 12:09:08;;;;;;;5.93;4.32;;;;;10.40;98853.00;;;;5078222;28;20058;-61
2024/02/13 12:11:36;;;;;;;7.47;4.32;;;;;10.40;98849.00;;;;5073116;28;20040;-63
2024/02/13 12:14:03;;;;;;;7.05;4.00;;;;;10.50;98850.00;;;;5064708;28;20064;-62
2024/02/13 12:16:32;;;;;;;6.97;4.03;;;;;10.50;98851.00;;;;5094289;28;20054;-62
2024/02/13 12:18:59;;;;;;;8.50;4.28;;;;;10.60;98846.00;;;;5093966;28;20488;-62
2024/02/13 12:21:29;;;;;;;7.10;4.30;;;;;10.70;98850.00;;;;5076125;28;20048;-62
2024/02/13 12:24:01;;;;;;;5.78;4.15;;;;;10.70;98863.00;;;;5076348;28;20135;-62
2024/02/13 12:26:31;;;;;;;7.07;3.97;;;;;10.50;98852.00;;;;5093932;28;20098;-62
2024/02/13 12:28:58;;;;;;;7.03;4.43;;;;;10.50;98850.00;;;;5093656;28;20484;-62
2024/02/13 12:31:29;;;;;;;8.40;4.53;;;;;10.50;98851.00;;;;5093817;28;20048;-62